Time;durP1;ratioP1;P1;durP2;ratioP2;P2;SDS_P1;SDS_P2;PMS_P1;PMS_P2;Temp;Humidity;BMP_temperature;BMP_pressure;BME280_temperature;BME280_humidity;BME280_pressure;Samples;Min_cycle;Max_cycle;Signal;HPM_P1;HPM_P2
2023/09/03 00:01:57;;;;;;;1.92;1.08;;;16.80;99.90;;;;;;4412216;32;20433;-72
2023/09/03 00:04:23;;;;;;;1.75;1.33;;;16.70;99.90;;;;;;4412197;32;20136;-73
2023/09/03 00:06:48;;;;;;;1.45;0.95;;;16.80;99.90;;;;;;4411979;32;20128;-72
2023/09/03 00:09:14;;;;;;;1.70;1.25;;;16.70;99.90;;;;;;4413452;32;20069;-73
2023/09/03 00:11:39;;;;;;;2.55;1.40;;;16.70;99.90;;;;;;4412822;32;20095;-73
2023/09/03 00:14:05;;;;;;;2.70;1.42;;;16.70;99.90;;;;;;4414303;32;20094;-73
2023/09/03 00:16:30;;;;;;;2.55;1.27;;;16.80;99.90;;;;;;4414159;32;20525;-72
2023/09/03 00:18:56;;;;;;;1.30;0.90;;;16.80;99.90;;;;;;4414707;32;20117;-73
2023/09/03 00:21:21;;;;;;;1.27;0.93;;;16.80;99.90;;;;;;4414338;32;20133;-73
2023/09/03 00:23:49;;;;;;;1.48;1.37;;;16.80;99.90;;;;;;4415091;32;20062;-72
2023/09/03 00:26:18;;;;;;;0.90;0.90;;;16.70;99.90;;;;;;4413502;32;20066;-72
2023/09/03 00:28:43;;;;;;;2.15;1.20;;;16.70;99.90;;;;;;4412517;32;20078;-72
2023/09/03 00:31:09;;;;;;;1.48;1.17;;;16.70;99.90;;;;;;4413425;32;20559;-73
2023/09/03 00:33:35;;;;;;;1.05;1.05;;;16.70;99.90;;;;;;4412621;32;20093;-73
2023/09/03 00:36:03;;;;;;;1.10;1.00;;;16.70;99.90;;;;;;4414221;32;20093;-73
2023/09/03 00:38:28;;;;;;;3.75;1.20;;;16.70;99.90;;;;;;4415247;32;20106;-74
2023/09/03 00:40:54;;;;;;;1.83;1.42;;;16.70;99.90;;;;;;4412764;32;20061;-74
2023/09/03 00:43:20;;;;;;;1.73;1.00;;;16.70;99.90;;;;;;4412395;32;20155;-74
2023/09/03 00:45:47;;;;;;;0.75;0.75;;;16.70;99.90;;;;;;4412233;32;20061;-74
2023/09/03 00:48:18;;;;;;;3.65;1.27;;;16.80;99.90;;;;;;4409825;32;20081;-74
2023/09/03 00:50:45;;;;;;;4.50;1.10;;;16.80;99.90;;;;;;4419006;32;20090;-74
2023/09/03 00:53:13;;;;;;;2.78;1.35;;;16.80;99.90;;;;;;4420612;32;20090;-73
2023/09/03 00:55:39;;;;;;;1.05;1.00;;;16.80;99.90;;;;;;4416775;32;20086;-73
2023/09/03 00:58:06;;;;;;;1.17;1.08;;;16.80;99.90;;;;;;4419997;32;20481;-74
2023/09/03 01:00:33;;;;;;;0.77;0.77;;;16.80;99.90;;;;;;4417911;32;20088;-74
2023/09/03 01:03:00;;;;;;;0.80;0.80;;;16.70;99.90;;;;;;4416307;32;20112;-72
2023/09/03 01:05:26;;;;;;;1.12;1.02;;;16.70;99.90;;;;;;4417042;32;20116;-74
2023/09/03 01:07:51;;;;;;;0.80;0.80;;;16.70;99.90;;;;;;4419347;32;20069;-74
2023/09/03 01:10:19;;;;;;;0.80;0.80;;;16.70;99.90;;;;;;4415617;32;20123;-74
2023/09/03 01:12:58;;;;;;;1.00;0.88;;;16.70;99.90;;;;;;4420645;32;20078;-73
2023/09/03 01:15:31;;;;;;;5.57;2.05;;;16.70;99.90;;;;;;4404572;32;20128;-73
2023/09/03 01:18:14;;;;;;;0.70;0.70;;;16.70;99.90;;;;;;4420274;32;20572;-74
2023/09/03 01:20:44;;;;;;;2.28;1.25;;;16.70;99.90;;;;;;4420841;32;20093;-75
2023/09/03 01:23:30;;;;;;;1.42;1.25;;;16.70;99.90;;;;;;4418623;32;20540;-74
2023/09/03 01:26:22;;;;;;;2.22;1.27;;;16.70;99.90;;;;;;4418172;32;20232;-74
2023/09/03 01:28:49;;;;;;;0.75;0.75;;;16.70;99.90;;;;;;4419437;32;20124;-74
2023/09/03 01:31:17;;;;;;;0.82;0.80;;;16.60;99.90;;;;;;4419369;32;20533;-74
2023/09/03 01:33:44;;;;;;;1.37;1.20;;;16.60;99.90;;;;;;4419987;32;20445;-73
2023/09/03 01:36:11;;;;;;;2.15;0.93;;;16.70;99.90;;;;;;4414932;32;20533;-73
2023/09/03 01:38:37;;;;;;;2.20;1.27;;;16.60;99.90;;;;;;4419329;32;20135;-74
2023/09/03 01:41:04;;;;;;;0.80;0.80;;;16.50;99.90;;;;;;4422049;32;20081;-74
2023/09/03 01:43:29;;;;;;;1.30;0.98;;;16.50;99.90;;;;;;4419437;32;20127;-75
2023/09/03 01:46:17;;;;;;;2.78;1.42;;;16.50;99.90;;;;;;4419176;32;20588;-74
2023/09/03 01:48:58;;;;;;;1.05;0.95;;;16.50;99.90;;;;;;4419242;32;20094;-75
2023/09/03 01:51:43;;;;;;;;;;;16.50;99.90;;;;;;4410678;32;20070;-75
2023/09/03 01:54:15;;;;;;;4.72;1.48;;;16.60;99.90;;;;;;4402521;32;19963;-75
2023/09/03 01:56:48;;;;;;;1.15;1.05;;;16.60;99.90;;;;;;4409547;32;20140;-75
2023/09/03 01:59:18;;;;;;;0.68;0.68;;;16.60;99.90;;;;;;4411093;32;20510;-75
2023/09/03 02:01:44;;;;;;;0.60;0.60;;;16.50;99.90;;;;;;4410794;32;20686;-75
2023/09/03 02:04:10;;;;;;;3.58;1.20;;;16.40;99.90;;;;;;4412909;32;20070;-75
2023/09/03 02:06:35;;;;;;;5.43;1.00;;;16.40;99.90;;;;;;4413962;32;20584;-75
2023/09/03 02:09:01;;;;;;;1.10;0.98;;;16.30;99.90;;;;;;4415002;32;20128;-75
2023/09/03 02:11:26;;;;;;;1.33;1.17;;;16.30;99.90;;;;;;4411558;32;20077;-75
2023/09/03 02:13:52;;;;;;;1.05;0.98;;;16.20;99.90;;;;;;4414986;32;20115;-74
2023/09/03 02:16:17;;;;;;;13.35;1.60;;;16.20;99.90;;;;;;4415420;32;20630;-75
2023/09/03 02:18:43;;;;;;;1.17;1.08;;;16.30;99.90;;;;;;4416819;32;20427;-75
2023/09/03 02:21:09;;;;;;;0.77;0.77;;;16.20;99.90;;;;;;4415710;32;20158;-75
2023/09/03 02:23:34;;;;;;;2.53;1.20;;;16.20;99.90;;;;;;4415780;32;20120;-75
2023/09/03 02:26:01;;;;;;;1.45;1.15;;;16.20;99.90;;;;;;4416905;32;20085;-75
2023/09/03 02:28:27;;;;;;;2.80;1.87;;;16.10;99.90;;;;;;4417485;32;21226;-74
2023/09/03 02:30:53;;;;;;;1.45;1.00;;;16.10;99.90;;;;;;4415579;32;20892;-75
2023/09/03 02:33:19;;;;;;;13.35;1.45;;;16.10;99.90;;;;;;4413173;32;20093;-74
2023/09/03 02:35:44;;;;;;;3.78;1.52;;;16.10;99.90;;;;;;4416235;32;20114;-74
2023/09/03 02:38:09;;;;;;;2.15;1.17;;;16.10;99.90;;;;;;4413016;32;20132;-74
2023/09/03 02:40:36;;;;;;;1.62;1.15;;;16.10;99.90;;;;;;4413503;32;20537;-74
2023/09/03 02:43:04;;;;;;;7.25;2.08;;;16.10;99.90;;;;;;4412308;32;20534;-74
2023/09/03 02:45:29;;;;;;;1.12;1.08;;;16.00;99.90;;;;;;4413570;32;20418;-74
2023/09/03 02:47:55;;;;;;;1.15;0.80;;;15.90;99.90;;;;;;4413014;32;20106;-73
2023/09/03 02:50:20;;;;;;;0.90;0.90;;;15.90;99.90;;;;;;4413363;32;20081;-74
2023/09/03 02:52:46;;;;;;;4.25;1.67;;;15.90;99.90;;;;;;4411605;32;20077;-73
2023/09/03 02:55:13;;;;;;;0.70;0.70;;;15.80;99.90;;;;;;4415094;32;20093;-74
2023/09/03 02:57:39;;;;;;;1.25;1.15;;;15.80;99.90;;;;;;4415036;32;20539;-73
2023/09/03 03:00:06;;;;;;;0.93;0.85;;;15.80;99.90;;;;;;4415356;32;20094;-74
2023/09/03 03:02:32;;;;;;;1.95;0.93;;;15.80;99.90;;;;;;4414031;32;20070;-73
2023/09/03 03:04:57;;;;;;;1.67;1.42;;;15.80;99.90;;;;;;4415238;32;20565;-74
2023/09/03 03:07:23;;;;;;;1.23;0.90;;;15.70;99.90;;;;;;4412174;32;20064;-73
2023/09/03 03:09:49;;;;;;;1.45;0.90;;;15.80;99.90;;;;;;4413132;32;20062;-74
2023/09/03 03:12:15;;;;;;;1.00;1.00;;;15.80;99.90;;;;;;4412842;32;20553;-74
2023/09/03 03:14:40;;;;;;;1.12;1.02;;;15.60;99.90;;;;;;4414175;32;20092;-74
2023/09/03 03:17:06;;;;;;;0.73;0.73;;;15.60;99.90;;;;;;4415583;32;20101;-73
2023/09/03 03:19:32;;;;;;;0.60;0.60;;;15.70;99.90;;;;;;4417105;32;20420;-74
2023/09/03 03:21:57;;;;;;;1.20;1.08;;;15.70;99.90;;;;;;4415672;32;20548;-74
2023/09/03 03:24:23;;;;;;;1.77;1.02;;;15.80;99.90;;;;;;4414068;32;20089;-73
2023/09/03 03:26:48;;;;;;;1.25;0.98;;;15.80;99.90;;;;;;4415595;32;20442;-74
2023/09/03 03:29:14;;;;;;;1.67;1.23;;;15.90;99.90;;;;;;4415036;32;20151;-74
2023/09/03 03:31:41;;;;;;;1.00;0.90;;;15.90;99.90;;;;;;4413223;32;20077;-74
2023/09/03 03:34:07;;;;;;;1.17;1.08;;;15.80;99.90;;;;;;4413142;32;20064;-74
2023/09/03 03:36:33;;;;;;;0.70;0.70;;;15.80;99.90;;;;;;4412310;32;20455;-74
2023/09/03 03:38:58;;;;;;;0.80;0.80;;;15.80;99.90;;;;;;4412805;32;20077;-74
2023/09/03 03:41:24;;;;;;;0.95;0.95;;;15.90;99.90;;;;;;4414012;32;20062;-73
2023/09/03 03:43:50;;;;;;;0.70;0.70;;;15.80;99.90;;;;;;4412076;32;20098;-73
2023/09/03 03:46:19;;;;;;;6.28;0.80;;;15.80;99.90;;;;;;4413347;32;20069;-74
2023/09/03 03:48:45;;;;;;;0.77;0.77;;;15.80;99.90;;;;;;4413483;32;20487;-74
2023/09/03 03:51:10;;;;;;;1.58;1.02;;;15.90;99.90;;;;;;4416355;32;20145;-74
2023/09/03 03:53:36;;;;;;;0.62;0.62;;;16.00;99.90;;;;;;4414484;32;20173;-73
2023/09/03 03:56:04;;;;;;;0.52;0.52;;;16.00;99.90;;;;;;4416684;32;20450;-74
2023/09/03 03:58:31;;;;;;;0.50;0.50;;;15.90;99.90;;;;;;4413362;32;20105;-74
2023/09/03 04:00:57;;;;;;;0.50;0.50;;;15.90;99.90;;;;;;4413347;32;20073;-75
2023/09/03 04:03:24;;;;;;;0.55;0.55;;;15.80;99.90;;;;;;4413466;32;20066;-74
2023/09/03 04:05:58;;;;;;;2.45;1.27;;;15.80;99.90;;;;;;4417730;32;20571;-75
2023/09/03 04:08:25;;;;;;;0.60;0.60;;;15.70;99.90;;;;;;4418787;32;20479;-73
2023/09/03 04:10:59;;;;;;;0.35;0.35;;;15.80;99.90;;;;;;4421832;32;21735;-73
2023/09/03 04:13:26;;;;;;;0.60;0.60;;;15.80;99.90;;;;;;4420016;32;20101;-73
2023/09/03 04:15:53;;;;;;;0.65;0.65;;;15.80;99.90;;;;;;4419424;32;20077;-73
2023/09/03 04:18:18;;;;;;;0.40;0.40;;;15.70;99.90;;;;;;4424642;32;20069;-73
2023/09/03 04:20:44;;;;;;;2.08;0.88;;;15.80;99.90;;;;;;4425759;32;20093;-74
2023/09/03 04:23:09;;;;;;;0.50;0.50;;;15.80;99.90;;;;;;4424181;32;20144;-74
2023/09/03 04:25:35;;;;;;;0.52;0.52;;;15.80;99.90;;;;;;4424019;32;20062;-74
2023/09/03 04:28:00;;;;;;;0.88;0.60;;;15.80;99.90;;;;;;4422799;32;20536;-74
2023/09/03 04:30:26;;;;;;;8.38;0.80;;;15.80;99.90;;;;;;4424441;32;20061;-74
2023/09/03 04:32:51;;;;;;;0.70;0.70;;;15.70;99.90;;;;;;4425409;32;20073;-74
2023/09/03 04:35:17;;;;;;;0.73;0.73;;;15.80;99.90;;;;;;4424110;32;20065;-74
2023/09/03 04:37:43;;;;;;;0.40;0.40;;;15.80;99.90;;;;;;4424352;32;20090;-74
2023/09/03 04:40:09;;;;;;;0.40;0.40;;;15.80;99.90;;;;;;4422738;32;20101;-74
2023/09/03 04:42:35;;;;;;;0.50;0.50;;;15.70;99.90;;;;;;4421742;32;20100;-74
2023/09/03 04:45:01;;;;;;;1.27;0.60;;;15.70;99.90;;;;;;4424450;32;20070;-74
2023/09/03 04:47:27;;;;;;;0.90;0.85;;;15.70;99.90;;;;;;4424391;32;20310;-74
2023/09/03 04:49:52;;;;;;;0.50;0.50;;;15.80;99.90;;;;;;4427135;32;20509;-74
2023/09/03 04:52:18;;;;;;;1.10;0.57;;;15.70;99.90;;;;;;4430530;32;20104;-74
2023/09/03 04:54:43;;;;;;;0.50;0.50;;;15.70;99.90;;;;;;4430751;32;20133;-74
2023/09/03 04:57:09;;;;;;;0.90;0.85;;;15.70;99.90;;;;;;4431637;32;20069;-73
2023/09/03 04:59:35;;;;;;;0.40;0.40;;;15.70;99.90;;;;;;4430074;32;20101;-74
2023/09/03 05:02:00;;;;;;;5.00;0.75;;;15.70;99.90;;;;;;4431497;32;20057;-74
2023/09/03 05:04:26;;;;;;;1.20;0.70;;;15.80;99.90;;;;;;4429138;32;20093;-73
2023/09/03 05:06:51;;;;;;;0.55;0.55;;;15.80;99.90;;;;;;4431282;32;20093;-74
2023/09/03 05:09:17;;;;;;;0.57;0.57;;;15.80;99.90;;;;;;4430722;32;20085;-74
2023/09/03 05:11:42;;;;;;;0.60;0.60;;;15.80;99.90;;;;;;4429590;32;20081;-74
2023/09/03 05:14:08;;;;;;;0.75;0.68;;;15.80;99.90;;;;;;4428377;32;20085;-73
2023/09/03 05:16:34;;;;;;;0.60;0.60;;;15.70;99.90;;;;;;4428729;32;20078;-74
2023/09/03 05:19:04;;;;;;;1.00;0.70;;;15.70;99.90;;;;;;4422947;32;20054;-74
2023/09/03 05:21:31;;;;;;;0.90;0.90;;;15.60;99.90;;;;;;4419677;32;20426;-74
2023/09/03 05:23:56;;;;;;;1.33;0.70;;;15.60;99.90;;;;;;4420641;32;20061;-74
2023/09/03 05:26:22;;;;;;;0.50;0.50;;;15.60;99.90;;;;;;4420369;32;20057;-73
2023/09/03 05:28:47;;;;;;;2.55;0.50;;;15.60;99.90;;;;;;4420016;32;20065;-73
2023/09/03 05:31:13;;;;;;;0.85;0.70;;;15.60;99.90;;;;;;4418862;32;20805;-73
2023/09/03 05:33:39;;;;;;;0.50;0.50;;;15.60;99.90;;;;;;4419086;32;20753;-73
2023/09/03 05:36:05;;;;;;;0.80;0.80;;;15.70;99.90;;;;;;4420065;32;20229;-73
2023/09/03 05:38:31;;;;;;;0.60;0.60;;;15.70;99.90;;;;;;4420563;32;20151;-74
2023/09/03 05:40:58;;;;;;;0.70;0.70;;;15.80;99.90;;;;;;4417438;32;20086;-74
2023/09/03 05:43:24;;;;;;;0.55;0.55;;;15.90;99.90;;;;;;4418837;32;20101;-74
2023/09/03 05:45:50;;;;;;;0.50;0.50;;;15.90;99.90;;;;;;4420159;32;20057;-74
2023/09/03 05:48:15;;;;;;;0.77;0.70;;;15.90;99.90;;;;;;4421928;32;20101;-74
2023/09/03 05:50:41;;;;;;;3.75;0.62;;;15.80;99.90;;;;;;4420902;32;21826;-73
2023/09/03 05:53:06;;;;;;;0.47;0.47;;;15.80;99.90;;;;;;4423092;32;20076;-75
2023/09/03 05:55:32;;;;;;;0.65;0.65;;;15.80;99.90;;;;;;4422983;32;20419;-74
2023/09/03 05:57:58;;;;;;;0.50;0.50;;;15.80;99.90;;;;;;4423541;32;20086;-74
2023/09/03 06:00:23;;;;;;;0.55;0.55;;;15.90;99.90;;;;;;4420499;32;20089;-74
2023/09/03 06:02:49;;;;;;;0.60;0.60;;;16.00;99.90;;;;;;4424083;32;20170;-74
2023/09/03 06:05:14;;;;;;;0.50;0.50;;;16.00;99.90;;;;;;4422189;32;20062;-74
2023/09/03 06:07:40;;;;;;;0.62;0.62;;;16.00;99.90;;;;;;4422019;32;20162;-74
2023/09/03 06:10:06;;;;;;;0.40;0.40;;;16.10;99.90;;;;;;4422452;32;20208;-73
2023/09/03 06:12:31;;;;;;;0.50;0.50;;;16.00;99.90;;;;;;4421598;32;20670;-74
2023/09/03 06:14:57;;;;;;;0.55;0.55;;;16.00;99.90;;;;;;4422946;32;20088;-75
2023/09/03 06:17:22;;;;;;;0.47;0.47;;;16.00;99.90;;;;;;4420259;32;20510;-74
2023/09/03 06:19:48;;;;;;;0.50;0.50;;;16.00;99.90;;;;;;4421300;32;20085;-74
2023/09/03 06:22:14;;;;;;;3.95;0.82;;;16.10;99.90;;;;;;4423081;32;20086;-75
2023/09/03 06:24:40;;;;;;;3.55;1.00;;;16.10;99.90;;;;;;4423367;32;20069;-74
2023/09/03 06:27:05;;;;;;;0.50;0.50;;;16.10;99.90;;;;;;4422784;32;20069;-73
2023/09/03 06:29:31;;;;;;;0.30;0.30;;;16.10;99.90;;;;;;4423392;32;20070;-73
2023/09/03 06:31:56;;;;;;;0.73;0.70;;;16.10;99.90;;;;;;4420570;32;20069;-74
2023/09/03 06:34:22;;;;;;;1.40;0.60;;;16.10;99.90;;;;;;4420692;32;20077;-73
2023/09/03 06:36:48;;;;;;;0.40;0.40;;;16.20;99.90;;;;;;4421202;32;20572;-74
2023/09/03 06:39:14;;;;;;;0.50;0.50;;;16.30;99.90;;;;;;4423555;32;20165;-73
2023/09/03 06:41:39;;;;;;;0.40;0.40;;;16.30;99.90;;;;;;4422287;32;20094;-74
2023/09/03 06:44:05;;;;;;;1.40;0.52;;;16.40;99.90;;;;;;4421287;32;20081;-73
2023/09/03 06:46:31;;;;;;;0.85;0.60;;;16.50;99.90;;;;;;4423012;32;20057;-72
2023/09/03 06:48:56;;;;;;;0.47;0.47;;;16.50;99.90;;;;;;4419990;32;20070;-73
2023/09/03 06:51:21;;;;;;;2.30;0.95;;;16.50;99.90;;;;;;4414827;32;20073;-72
2023/09/03 06:53:47;;;;;;;0.40;0.40;;;16.50;99.90;;;;;;4415556;32;20090;-73
2023/09/03 06:56:13;;;;;;;3.12;0.60;;;16.50;99.90;;;;;;4413970;32;20109;-72
2023/09/03 06:58:38;;;;;;;0.90;0.70;;;16.60;99.90;;;;;;4414849;32;20474;-72
2023/09/03 07:01:04;;;;;;;0.50;0.40;;;16.60;99.90;;;;;;4415783;32;20098;-72
2023/09/03 07:03:30;;;;;;;0.40;0.40;;;16.60;99.90;;;;;;4415234;32;20123;-73
2023/09/03 07:05:56;;;;;;;0.60;0.60;;;16.70;99.90;;;;;;4418346;32;20102;-72
2023/09/03 07:08:21;;;;;;;0.60;0.60;;;16.80;99.90;;;;;;4415366;32;20089;-73
2023/09/03 07:10:47;;;;;;;0.50;0.50;;;16.80;99.90;;;;;;4415697;32;20112;-73
2023/09/03 07:13:12;;;;;;;0.40;0.40;;;16.80;99.90;;;;;;4416416;32;20524;-72
2023/09/03 07:15:38;;;;;;;0.55;0.55;;;16.70;99.90;;;;;;4414439;32;20097;-72
2023/09/03 07:18:04;;;;;;;0.40;0.40;;;16.80;99.90;;;;;;4417203;32;20078;-73
2023/09/03 07:20:29;;;;;;;0.50;0.50;;;16.80;99.90;;;;;;4416200;32;20082;-72
2023/09/03 07:22:55;;;;;;;0.30;0.30;;;17.00;99.90;;;;;;4416076;32;20053;-72
2023/09/03 07:25:21;;;;;;;0.30;0.30;;;17.00;99.90;;;;;;4417807;32;20074;-73
2023/09/03 07:27:46;;;;;;;0.40;0.40;;;17.10;99.90;;;;;;4412824;32;20082;-73
2023/09/03 07:30:12;;;;;;;0.47;0.47;;;17.10;99.90;;;;;;4414350;32;20088;-72
2023/09/03 07:32:38;;;;;;;0.40;0.40;;;17.10;99.90;;;;;;4414717;32;20224;-73
2023/09/03 07:35:05;;;;;;;0.65;0.62;;;17.00;99.90;;;;;;4415748;32;20159;-73
2023/09/03 07:37:30;;;;;;;0.32;0.32;;;17.10;99.90;;;;;;4412534;32;20434;-74
2023/09/03 07:39:56;;;;;;;0.40;0.40;;;17.10;99.90;;;;;;4412811;32;20070;-74
2023/09/03 07:42:21;;;;;;;0.55;0.55;;;17.10;99.90;;;;;;4413196;32;20509;-74
2023/09/03 07:44:47;;;;;;;0.60;0.60;;;17.20;99.90;;;;;;4412914;32;20090;-73
2023/09/03 07:47:13;;;;;;;1.80;0.43;;;17.20;99.90;;;;;;4414483;32;20062;-73
2023/09/03 07:49:38;;;;;;;4.05;1.23;;;17.40;99.90;;;;;;4414173;32;20069;-74
2023/09/03 07:52:07;;;;;;;0.70;0.70;;;17.50;99.90;;;;;;4412691;32;20278;-74
2023/09/03 07:54:32;;;;;;;0.37;0.37;;;17.70;99.90;;;;;;4411151;32;20493;-73
2023/09/03 07:56:58;;;;;;;0.55;0.40;;;17.70;99.90;;;;;;4416155;32;20066;-74
2023/09/03 07:59:24;;;;;;;0.30;0.30;;;17.70;99.90;;;;;;4412738;32;20138;-74
2023/09/03 08:01:49;;;;;;;0.95;0.70;;;17.80;99.90;;;;;;4415309;32;20089;-73
2023/09/03 08:04:14;;;;;;;0.40;0.40;;;17.80;99.90;;;;;;4413555;32;20513;-74
2023/09/03 08:06:40;;;;;;;0.30;0.30;;;17.90;99.90;;;;;;4413035;32;20062;-73
2023/09/03 08:09:06;;;;;;;0.43;0.43;;;17.80;99.90;;;;;;4413785;32;20541;-74
2023/09/03 08:11:31;;;;;;;0.30;0.30;;;17.90;99.90;;;;;;4411367;32;20058;-74
2023/09/03 08:13:59;;;;;;;0.30;0.30;;;17.90;99.90;;;;;;4413745;32;20439;-74
2023/09/03 08:16:24;;;;;;;0.40;0.40;;;18.00;99.90;;;;;;4412199;32;20062;-74
2023/09/03 08:18:50;;;;;;;0.40;0.40;;;18.00;99.90;;;;;;4411665;32;20569;-74
2023/09/03 08:21:16;;;;;;;0.50;0.50;;;18.00;99.90;;;;;;4411706;32;20085;-74
2023/09/03 08:23:41;;;;;;;0.25;0.25;;;18.10;99.90;;;;;;4413758;32;20201;-73
2023/09/03 08:26:07;;;;;;;0.30;0.30;;;18.10;99.90;;;;;;4413707;32;20155;-74
2023/09/03 08:28:33;;;;;;;0.30;0.30;;;18.20;99.90;;;;;;4413630;32;20572;-74
2023/09/03 08:30:59;;;;;;;0.30;0.30;;;18.30;99.90;;;;;;4412623;32;20481;-74
2023/09/03 08:33:24;;;;;;;0.40;0.40;;;18.30;99.90;;;;;;4414978;32;20086;-74
2023/09/03 08:35:50;;;;;;;0.30;0.30;;;18.30;99.90;;;;;;4411668;32;20069;-74
2023/09/03 08:38:16;;;;;;;0.30;0.30;;;18.40;99.90;;;;;;4414448;32;20132;-73
2023/09/03 08:40:41;;;;;;;0.52;0.52;;;18.50;99.90;;;;;;4411245;32;20499;-74
2023/09/03 08:43:08;;;;;;;0.30;0.30;;;18.60;99.90;;;;;;4409861;32;20081;-74
2023/09/03 08:45:39;;;;;;;0.30;0.30;;;18.60;99.90;;;;;;4412335;32;20177;-74
2023/09/03 08:48:05;;;;;;;0.98;0.70;;;18.60;99.90;;;;;;4412028;32;20525;-74
2023/09/03 08:50:33;;;;;;;0.28;0.28;;;18.60;99.90;;;;;;4418375;32;20101;-74
2023/09/03 08:53:00;;;;;;;0.40;0.40;;;18.60;99.90;;;;;;4418122;32;20155;-74
2023/09/03 08:55:29;;;;;;;0.30;0.30;;;18.70;99.90;;;;;;4419738;32;21249;-73
2023/09/03 08:57:54;;;;;;;0.30;0.30;;;18.60;99.90;;;;;;4418762;32;20493;-74
2023/09/03 09:00:20;;;;;;;0.32;0.32;;;18.50;99.90;;;;;;4417266;32;20144;-74
2023/09/03 09:02:47;;;;;;;0.50;0.50;;;18.50;99.90;;;;;;4415812;32;20187;-73
2023/09/03 09:05:14;;;;;;;0.30;0.30;;;18.60;99.90;;;;;;4417279;32;20402;-74
2023/09/03 09:07:39;;;;;;;0.40;0.40;;;18.80;99.90;;;;;;4419403;32;20105;-74
2023/09/03 09:10:08;;;;;;;1.70;0.95;;;19.00;99.90;;;;;;4420817;32;20061;-74
2023/09/03 09:12:59;;;;;;;0.40;0.40;;;19.10;99.90;;;;;;4416968;32;20070;-74
2023/09/03 09:15:24;;;;;;;0.30;0.30;;;19.00;99.90;;;;;;4417519;32;20081;-74
2023/09/03 09:17:50;;;;;;;0.32;0.32;;;18.90;99.90;;;;;;4418377;32;20707;-74
2023/09/03 09:20:16;;;;;;;0.30;0.30;;;19.10;99.90;;;;;;4417962;32;20101;-74
2023/09/03 09:22:44;;;;;;;0.37;0.37;;;19.30;99.90;;;;;;4418525;32;20065;-73
2023/09/03 09:25:17;;;;;;;0.40;0.40;;;19.30;99.90;;;;;;4420346;32;20114;-73
2023/09/03 09:27:42;;;;;;;0.35;0.35;;;19.10;99.90;;;;;;4419878;32;20434;-74
2023/09/03 09:30:12;;;;;;;0.50;0.50;;;19.20;99.90;;;;;;4420383;32;20136;-74
2023/09/03 09:32:38;;;;;;;0.32;0.32;;;19.30;99.90;;;;;;4415219;32;20057;-74
2023/09/03 09:35:06;;;;;;;1.52;0.88;;;19.30;99.90;;;;;;4417260;32;20089;-74
2023/09/03 09:37:40;;;;;;;0.30;0.30;;;19.30;99.90;;;;;;4419013;32;20319;-74
2023/09/03 09:40:07;;;;;;;0.50;0.50;;;19.30;99.90;;;;;;4419211;32;20069;-74
2023/09/03 09:42:33;;;;;;;0.30;0.30;;;19.20;99.90;;;;;;4418135;32;20062;-74
2023/09/03 09:44:59;;;;;;;0.60;0.60;;;19.20;99.90;;;;;;4417706;32;20312;-74
2023/09/03 09:47:25;;;;;;;0.40;0.40;;;19.30;99.90;;;;;;4417109;32;20153;-74
2023/09/03 09:49:51;;;;;;;0.35;0.35;;;19.40;99.90;;;;;;4420693;32;20085;-74
2023/09/03 09:52:18;;;;;;;0.28;0.28;;;19.60;99.90;;;;;;4417767;32;20113;-74
2023/09/03 09:54:46;;;;;;;0.30;0.30;;;19.60;99.90;;;;;;4418868;32;20065;-73
2023/09/03 09:57:16;;;;;;;0.55;0.40;;;19.70;99.90;;;;;;4419977;32;20081;-73
2023/09/03 09:59:42;;;;;;;0.30;0.30;;;19.80;99.90;;;;;;4420232;32;20065;-74
2023/09/03 10:02:16;;;;;;;0.30;0.30;;;19.90;99.90;;;;;;4418233;32;20104;-74
2023/09/03 10:04:44;;;;;;;0.30;0.30;;;19.90;99.90;;;;;;4417647;32;20116;-74
2023/09/03 10:07:10;;;;;;;0.40;0.40;;;19.90;99.90;;;;;;4417995;32;20081;-75
2023/09/03 10:09:38;;;;;;;0.20;0.20;;;19.90;99.90;;;;;;4418958;32;20164;-74
2023/09/03 10:12:06;;;;;;;0.20;0.20;;;19.90;99.90;;;;;;4417800;32;20062;-74
2023/09/03 10:14:31;;;;;;;0.30;0.30;;;20.10;99.90;;;;;;4421905;32;20086;-74
2023/09/03 10:17:00;;;;;;;1.10;0.73;;;20.30;99.90;;;;;;4418022;32;20524;-74
2023/09/03 10:19:31;;;;;;;0.30;0.30;;;20.30;99.90;;;;;;4415512;32;20058;-74
2023/09/03 10:22:01;;;;;;;2.35;1.05;;;20.30;99.90;;;;;;4417146;32;20182;-75
2023/09/03 10:24:28;;;;;;;0.27;0.27;;;20.20;99.90;;;;;;4418139;32;20093;-74
2023/09/03 10:26:58;;;;;;;0.50;0.50;;;20.40;99.90;;;;;;4417264;32;20049;-75
2023/09/03 10:29:25;;;;;;;;;;;20.40;99.90;;;;;;4419309;32;20061;-75
2023/09/03 10:31:53;;;;;;;0.40;0.40;;;20.40;99.90;;;;;;4418345;32;19973;-75
2023/09/03 10:34:18;;;;;;;0.20;0.20;;;20.40;99.90;;;;;;4422445;32;20421;-75
2023/09/03 10:37:12;;;;;;;0.30;0.30;;;20.50;99.90;;;;;;4417922;32;20090;-75
2023/09/03 10:39:40;;;;;;;0.30;0.30;;;20.80;99.90;;;;;;4410618;32;20085;-75
2023/09/03 10:42:23;;;;;;;0.30;0.30;;;20.90;99.90;;;;;;4421536;32;20784;-74
2023/09/03 10:44:51;;;;;;;0.22;0.22;;;21.00;99.90;;;;;;4423428;32;20496;-74
2023/09/03 10:47:18;;;;;;;0.25;0.25;;;20.90;99.90;;;;;;4421949;32;20086;-75
2023/09/03 10:49:45;;;;;;;0.30;0.30;;;20.90;99.90;;;;;;4421350;32;20179;-75
2023/09/03 10:52:32;;;;;;;0.20;0.20;;;20.90;99.90;;;;;;4421288;32;20073;-75
2023/09/03 10:55:15;;;;;;;0.30;0.30;;;20.80;99.90;;;;;;4421420;32;20074;-75
2023/09/03 10:57:44;;;;;;;0.20;0.20;;;21.20;99.90;;;;;;4420900;32;20077;-74
2023/09/03 11:00:21;;;;;;;0.30;0.30;;;21.50;99.90;;;;;;4419158;32;20608;-75
2023/09/03 11:02:46;;;;;;;0.20;0.20;;;21.70;99.90;;;;;;4421716;32;20057;-75
2023/09/03 11:05:19;;;;;;;0.25;0.25;;;22.00;99.90;;;;;;4420308;32;20097;-75
2023/09/03 11:07:48;;;;;;;0.75;0.40;;;22.50;99.90;;;;;;4418806;32;20082;-75
2023/09/03 11:10:37;;;;;;;0.28;0.28;;;22.60;99.90;;;;;;4421008;32;20082;-73
2023/09/03 11:13:07;;;;;;;0.20;0.20;;;22.60;99.90;;;;;;4406359;32;20093;-73
2023/09/03 11:15:32;;;;;;;0.17;0.17;;;22.80;99.90;;;;;;4423283;32;20046;-73
2023/09/03 11:17:58;;;;;;;0.20;0.20;;;23.00;99.90;;;;;;4422037;32;20089;-74
2023/09/03 11:20:32;;;;;;;0.30;0.30;;;23.30;99.90;;;;;;4422749;32;20136;-73
2023/09/03 11:22:59;;;;;;;3.12;1.15;;;23.30;99.90;;;;;;4420705;32;20085;-73
2023/09/03 11:25:35;;;;;;;0.20;0.20;;;23.40;99.90;;;;;;4420668;32;20430;-74
2023/09/03 11:28:01;;;;;;;0.25;0.25;;;23.50;99.90;;;;;;4419075;32;20097;-74
2023/09/03 11:30:27;;;;;;;0.22;0.22;;;23.40;99.90;;;;;;4421722;32;20097;-73
2023/09/03 11:32:53;;;;;;;0.10;0.10;;;23.40;99.90;;;;;;4423433;32;20081;-72
2023/09/03 11:35:18;;;;;;;0.15;0.15;;;23.20;99.90;;;;;;4421067;32;20093;-73
2023/09/03 11:37:44;;;;;;;0.20;0.20;;;23.00;99.90;;;;;;4420546;32;20489;-73
2023/09/03 11:40:10;;;;;;;0.25;0.25;;;22.90;99.90;;;;;;4419252;32;20057;-73
2023/09/03 11:42:39;;;;;;;0.10;0.10;;;22.80;99.90;;;;;;4421186;32;20132;-73
2023/09/03 11:45:05;;;;;;;0.30;0.30;;;22.50;99.90;;;;;;4422062;32;20093;-73
2023/09/03 11:47:38;;;;;;;0.20;0.20;;;22.60;99.90;;;;;;4420485;32;107641;-73
2023/09/03 11:50:13;;;;;;;0.20;0.20;;;22.60;99.90;;;;;;4417281;32;20116;-74
2023/09/03 11:52:38;;;;;;;0.30;0.30;;;22.60;99.90;;;;;;4409751;32;20078;-74
2023/09/03 11:55:04;;;;;;;0.10;0.10;;;22.60;99.90;;;;;;4415741;32;20085;-73
2023/09/03 11:57:30;;;;;;;0.28;0.28;;;22.50;99.90;;;;;;4414290;32;20876;-73
2023/09/03 11:59:56;;;;;;;0.20;0.20;;;22.50;99.90;;;;;;4412602;32;20170;-73
2023/09/03 12:02:22;;;;;;;0.20;0.20;;;22.60;99.90;;;;;;4414045;32;20050;-73
2023/09/03 12:04:48;;;;;;;0.20;0.20;;;22.90;99.90;;;;;;4413768;32;20640;-73
2023/09/03 12:07:15;;;;;;;0.20;0.20;;;22.90;99.90;;;;;;4412180;32;20066;-73
2023/09/03 12:09:41;;;;;;;0.17;0.17;;;23.00;99.90;;;;;;4414003;32;20078;-74
2023/09/03 12:12:08;;;;;;;0.10;0.10;;;23.20;99.90;;;;;;4410654;32;20094;-73
2023/09/03 12:14:34;;;;;;;0.10;0.10;;;23.20;99.90;;;;;;4413147;32;20092;-73
2023/09/03 12:16:59;;;;;;;0.20;0.20;;;23.20;99.90;;;;;;4414323;32;20680;-74
2023/09/03 12:19:37;;;;;;;0.10;0.10;;;23.40;99.90;;;;;;4416659;32;20086;-73
2023/09/03 12:22:03;;;;;;;0.10;0.10;;;23.90;99.90;;;;;;4402141;32;20086;-74
2023/09/03 12:24:29;;;;;;;0.10;0.10;;;23.90;99.90;;;;;;4410453;32;20106;-73
2023/09/03 12:27:03;;;;;;;0.10;0.10;;;23.60;99.90;;;;;;4412541;32;20102;-73
2023/09/03 12:29:35;;;;;;;0.20;0.20;;;23.30;99.90;;;;;;4412334;32;20098;-73
2023/09/03 12:32:00;;;;;;;0.32;0.20;;;23.40;99.90;;;;;;4411716;32;20496;-74
2023/09/03 12:34:34;;;;;;;0.20;0.20;;;23.40;99.90;;;;;;4413975;32;20077;-73
2023/09/03 12:37:01;;;;;;;0.10;0.10;;;23.30;99.90;;;;;;4412996;32;20144;-74
2023/09/03 12:39:31;;;;;;;0.10;0.10;;;23.40;99.90;;;;;;4412715;32;20085;-74
2023/09/03 12:41:57;;;;;;;0.10;0.10;;;23.30;99.90;;;;;;4411839;32;20078;-75
2023/09/03 12:44:23;;;;;;;0.10;0.10;;;23.30;99.90;;;;;;4410611;32;20105;-74
2023/09/03 12:46:49;;;;;;;0.20;0.20;;;23.70;99.90;;;;;;4413564;32;20426;-74
2023/09/03 12:49:14;;;;;;;0.10;0.10;;;24.20;99.90;;;;;;4413999;32;20092;-74